createdAt,value
2023-04-16T00:03:24.458Z,9.02
2023-04-16T00:18:30.505Z,8.83
2023-04-16T00:33:36.250Z,8.86
2023-04-16T00:48:43.764Z,8.83
2023-04-16T01:03:50.500Z,8.67
2023-04-16T01:18:56.166Z,8.72
2023-04-16T01:34:01.838Z,8.62
2023-04-16T01:49:08.216Z,8.44
2023-04-16T02:04:14.329Z,8.42
2023-04-16T02:19:19.871Z,8.60
2023-04-16T02:34:25.960Z,8.56
2023-04-16T02:49:32.159Z,8.68
2023-04-16T03:04:37.868Z,8.62
2023-04-16T03:19:43.509Z,8.64
2023-04-16T03:34:49.178Z,8.66
2023-04-16T03:49:55.068Z,8.53
2023-04-16T04:05:00.850Z,8.64
2023-04-16T04:20:07.672Z,8.57
2023-04-16T04:35:13.596Z,8.51
2023-04-16T04:50:19.303Z,8.49
2023-04-16T05:05:25.094Z,8.47
2023-04-16T05:20:31.141Z,8.59
2023-04-16T05:35:36.845Z,8.39
2023-04-16T05:50:42.701Z,8.42
2023-04-16T06:05:48.237Z,8.32
2023-04-16T06:20:53.697Z,8.42
2023-04-16T06:35:59.185Z,8.41
2023-04-16T06:51:04.957Z,8.45
2023-04-16T07:06:10.680Z,8.33
2023-04-16T07:21:16.445Z,8.04
2023-04-16T07:36:22.002Z,8.14
2023-04-16T07:51:27.805Z,8.28
2023-04-16T08:06:33.597Z,8.27
2023-04-16T08:21:39.216Z,8.68
2023-04-16T08:36:44.876Z,8.47
2023-04-16T08:51:53.499Z,8.80
2023-04-16T09:07:01.518Z,8.51
2023-04-16T09:22:06.983Z,8.63
2023-04-16T09:37:19.461Z,8.59
2023-04-16T09:52:26.304Z,8.38
2023-04-16T10:07:35.055Z,8.86
2023-04-16T10:22:41.054Z,8.87
2023-04-16T10:37:47.705Z,8.85
2023-04-16T10:53:19.644Z,9.08
2023-04-16T11:08:26.297Z,8.89
2023-04-16T11:23:32.116Z,8.85
2023-04-16T11:38:41.283Z,9.09
2023-04-16T11:54:04.585Z,8.97
2023-04-16T12:09:28.769Z,9.09
2023-04-16T12:24:38.224Z,9.65
2023-04-16T12:39:43.689Z,9.86
2023-04-16T12:54:49.167Z,10.04
2023-04-16T13:09:54.892Z,10.50
2023-04-16T13:25:00.419Z,10.60
2023-04-16T13:40:06.801Z,10.82
2023-04-16T13:55:14.271Z,10.81
2023-04-16T14:10:20.247Z,10.37
2023-04-16T14:25:25.834Z,10.41
2023-04-16T14:40:31.511Z,11.08
2023-04-16T14:55:37.040Z,10.89
2023-04-16T15:10:43.715Z,11.16
2023-04-16T15:25:49.206Z,11.24
2023-04-16T15:40:54.827Z,11.84
2023-04-16T15:56:00.425Z,11.16
2023-04-16T16:11:06.360Z,11.25
2023-04-16T16:26:11.916Z,11.00
2023-04-16T16:41:17.545Z,10.87
2023-04-16T16:56:23.201Z,10.68
2023-04-16T17:11:29.630Z,10.22
2023-04-16T17:26:35.563Z,9.86
2023-04-16T17:41:41.127Z,9.78
2023-04-16T17:56:47.043Z,9.65
2023-04-16T18:11:52.650Z,9.49
2023-04-16T18:26:58.281Z,9.59
2023-04-16T18:42:04.220Z,9.34
2023-04-16T18:57:09.759Z,9.23
2023-04-16T19:12:15.318Z,9.11
2023-04-16T19:27:20.744Z,9.30
2023-04-16T19:42:27.563Z,9.09
2023-04-16T19:57:33.266Z,9.14
2023-04-16T20:12:39.319Z,9.16
2023-04-16T20:27:45.028Z,9.19
2023-04-16T20:42:52.375Z,9.16
2023-04-16T20:57:58.155Z,9.04
2023-04-16T21:13:03.843Z,8.98
2023-04-16T21:28:09.427Z,8.91
2023-04-16T21:43:15.045Z,8.85
2023-04-16T21:58:20.669Z,8.80
2023-04-16T22:13:26.814Z,8.73
2023-04-16T22:28:32.615Z,8.63
2023-04-16T22:43:38.450Z,8.71
2023-04-16T22:58:43.962Z,8.64
2023-04-16T23:13:49.630Z,8.62
2023-04-16T23:28:55.258Z,8.73
2023-04-16T23:44:01.046Z,8.47
2023-04-16T23:59:06.492Z,8.39
